sensor_id;sensor_type;location;lat;lon;timestamp;temperature;humidity
36280;DHT22;22317;47.936;12.742;2023-05-20T00:00:51;9.60;60.20
36280;DHT22;22317;47.936;12.742;2023-05-20T00:03:18;9.60;60.30
36280;DHT22;22317;47.936;12.742;2023-05-20T00:05:47;9.60;60.30
36280;DHT22;22317;47.936;12.742;2023-05-20T00:08:13;9.60;60.40
36280;DHT22;22317;47.936;12.742;2023-05-20T00:10:39;9.60;60.50
36280;DHT22;22317;47.936;12.742;2023-05-20T00:13:05;9.60;61.20
36280;DHT22;22317;47.936;12.742;2023-05-20T00:15:32;9.60;60.50
36280;DHT22;22317;47.936;12.742;2023-05-20T00:18:00;9.60;60.50
36280;DHT22;22317;47.936;12.742;2023-05-20T00:20:26;9.60;60.60
36280;DHT22;22317;47.936;12.742;2023-05-20T00:22:51;9.60;60.40
36280;DHT22;22317;47.936;12.742;2023-05-20T00:25:17;9.60;60.40
36280;DHT22;22317;47.936;12.742;2023-05-20T00:27:43;9.50;60.30
36280;DHT22;22317;47.936;12.742;2023-05-20T00:30:09;9.50;60.50
36280;DHT22;22317;47.936;12.742;2023-05-20T00:32:35;9.50;60.50
36280;DHT22;22317;47.936;12.742;2023-05-20T00:35:02;9.50;60.40
36280;DHT22;22317;47.936;12.742;2023-05-20T00:37:28;9.50;60.50
36280;DHT22;22317;47.936;12.742;2023-05-20T00:39:54;9.50;60.30
36280;DHT22;22317;47.936;12.742;2023-05-20T00:42:23;9.40;60.20
36280;DHT22;22317;47.936;12.742;2023-05-20T00:44:50;9.40;60.30
36280;DHT22;22317;47.936;12.742;2023-05-20T00:47:17;9.40;60.20
36280;DHT22;22317;47.936;12.742;2023-05-20T00:49:45;9.30;60.30
36280;DHT22;22317;47.936;12.742;2023-05-20T00:52:11;9.30;60.50
36280;DHT22;22317;47.936;12.742;2023-05-20T00:54:39;9.30;60.60
36280;DHT22;22317;47.936;12.742;2023-05-20T00:57:06;9.30;60.50
36280;DHT22;22317;47.936;12.742;2023-05-20T00:59:35;9.30;60.50
36280;DHT22;22317;47.936;12.742;2023-05-20T01:02:02;9.20;60.50
36280;DHT22;22317;47.936;12.742;2023-05-20T01:04:29;9.20;60.60
36280;DHT22;22317;47.936;12.742;2023-05-20T01:06:56;9.20;60.60
36280;DHT22;22317;47.936;12.742;2023-05-20T01:09:26;9.20;60.50
36280;DHT22;22317;47.936;12.742;2023-05-20T01:12:14;9.10;60.60
36280;DHT22;22317;47.936;12.742;2023-05-20T01:14:47;9.20;60.60
36280;DHT22;22317;47.936;12.742;2023-05-20T01:17:15;9.10;60.50
36280;DHT22;22317;47.936;12.742;2023-05-20T01:19:43;9.00;60.60
36280;DHT22;22317;47.936;12.742;2023-05-20T01:22:13;9.00;60.70
36280;DHT22;22317;47.936;12.742;2023-05-20T01:24:44;9.00;60.90
36280;DHT22;22317;47.936;12.742;2023-05-20T01:27:11;9.00;60.90
36280;DHT22;22317;47.936;12.742;2023-05-20T01:29:41;9.00;60.90
36280;DHT22;22317;47.936;12.742;2023-05-20T01:32:17;9.00;60.80
36280;DHT22;22317;47.936;12.742;2023-05-20T01:34:44;9.00;60.80
36280;DHT22;22317;47.936;12.742;2023-05-20T01:37:12;9.00;60.70
36280;DHT22;22317;47.936;12.742;2023-05-20T01:39:39;9.00;60.70
36280;DHT22;22317;47.936;12.742;2023-05-20T01:42:09;8.90;60.70
36280;DHT22;22317;47.936;12.742;2023-05-20T01:44:35;8.90;60.60
36280;DHT22;22317;47.936;12.742;2023-05-20T01:47:01;8.90;60.60
36280;DHT22;22317;47.936;12.742;2023-05-20T01:49:27;8.80;60.70
36280;DHT22;22317;47.936;12.742;2023-05-20T01:51:53;8.80;60.80
36280;DHT22;22317;47.936;12.742;2023-05-20T01:54:19;8.80;60.80
36280;DHT22;22317;47.936;12.742;2023-05-20T01:56:45;8.70;60.90
36280;DHT22;22317;47.936;12.742;2023-05-20T01:59:11;8.60;60.80
36280;DHT22;22317;47.936;12.742;2023-05-20T02:01:38;8.70;60.90
36280;DHT22;22317;47.936;12.742;2023-05-20T02:04:04;8.70;61.10
36280;DHT22;22317;47.936;12.742;2023-05-20T02:06:30;8.60;61.00
36280;DHT22;22317;47.936;12.742;2023-05-20T02:08:56;8.60;61.00
36280;DHT22;22317;47.936;12.742;2023-05-20T02:11:21;8.60;61.10
36280;DHT22;22317;47.936;12.742;2023-05-20T02:13:49;8.60;61.20
36280;DHT22;22317;47.936;12.742;2023-05-20T02:16:15;8.50;61.10
36280;DHT22;22317;47.936;12.742;2023-05-20T02:18:41;8.50;70.80
36280;DHT22;22317;47.936;12.742;2023-05-20T02:21:07;8.50;74.60
36280;DHT22;22317;47.936;12.742;2023-05-20T02:23:33;8.50;73.50
36280;DHT22;22317;47.936;12.742;2023-05-20T02:26:00;8.40;60.80
36280;DHT22;22317;47.936;12.742;2023-05-20T02:30:54;8.40;60.60
36280;DHT22;22317;47.936;12.742;2023-05-20T02:33:19;8.30;61.30
36280;DHT22;22317;47.936;12.742;2023-05-20T02:35:45;8.30;61.50
36280;DHT22;22317;47.936;12.742;2023-05-20T02:38:12;8.30;61.50
36280;DHT22;22317;47.936;12.742;2023-05-20T02:40:38;8.30;61.50
36280;DHT22;22317;47.936;12.742;2023-05-20T02:43:04;8.40;61.70
36280;DHT22;22317;47.936;12.742;2023-05-20T02:45:32;8.40;61.90
36280;DHT22;22317;47.936;12.742;2023-05-20T02:47:58;8.40;61.90
36280;DHT22;22317;47.936;12.742;2023-05-20T02:50:23;8.40;61.90
36280;DHT22;22317;47.936;12.742;2023-05-20T02:52:49;8.40;62.00
36280;DHT22;22317;47.936;12.742;2023-05-20T02:55:16;8.40;61.90
36280;DHT22;22317;47.936;12.742;2023-05-20T02:57:42;8.40;61.90
36280;DHT22;22317;47.936;12.742;2023-05-20T03:00:09;8.40;62.00
36280;DHT22;22317;47.936;12.742;2023-05-20T03:02:36;8.40;62.10
36280;DHT22;22317;47.936;12.742;2023-05-20T03:05:02;8.40;62.20
36280;DHT22;22317;47.936;12.742;2023-05-20T03:07:28;8.40;62.20
36280;DHT22;22317;47.936;12.742;2023-05-20T03:09:54;8.40;62.30
36280;DHT22;22317;47.936;12.742;2023-05-20T03:12:20;8.40;62.30
36280;DHT22;22317;47.936;12.742;2023-05-20T03:14:46;8.30;62.50
36280;DHT22;22317;47.936;12.742;2023-05-20T03:17:12;8.30;62.60
36280;DHT22;22317;47.936;12.742;2023-05-20T03:19:38;8.30;62.80
36280;DHT22;22317;47.936;12.742;2023-05-20T03:22:05;8.30;63.00
36280;DHT22;22317;47.936;12.742;2023-05-20T03:24:31;8.30;63.20
36280;DHT22;22317;47.936;12.742;2023-05-20T03:26:57;8.30;63.20
36280;DHT22;22317;47.936;12.742;2023-05-20T03:29:23;8.30;63.30
36280;DHT22;22317;47.936;12.742;2023-05-20T03:31:48;8.20;63.50
36280;DHT22;22317;47.936;12.742;2023-05-20T03:34:14;8.20;63.50
36280;DHT22;22317;47.936;12.742;2023-05-20T03:36:40;8.20;63.60
36280;DHT22;22317;47.936;12.742;2023-05-20T03:39:06;8.20;63.70
36280;DHT22;22317;47.936;12.742;2023-05-20T03:41:32;8.20;63.90
36280;DHT22;22317;47.936;12.742;2023-05-20T03:43:58;8.20;63.90
36280;DHT22;22317;47.936;12.742;2023-05-20T03:46:25;8.30;64.10
36280;DHT22;22317;47.936;12.742;2023-05-20T03:48:51;8.40;64.20
36280;DHT22;22317;47.936;12.742;2023-05-20T03:51:16;8.40;64.00
36280;DHT22;22317;47.936;12.742;2023-05-20T03:53:43;8.40;63.90
36280;DHT22;22317;47.936;12.742;2023-05-20T03:56:09;8.50;63.90
36280;DHT22;22317;47.936;12.742;2023-05-20T03:58:37;8.50;63.40
36280;DHT22;22317;47.936;12.742;2023-05-20T04:01:04;8.50;63.20
36280;DHT22;22317;47.936;12.742;2023-05-20T04:03:30;8.40;63.00
36280;DHT22;22317;47.936;12.742;2023-05-20T04:05:56;8.50;63.20
36280;DHT22;22317;47.936;12.742;2023-05-20T04:08:21;8.50;63.20
36280;DHT22;22317;47.936;12.742;2023-05-20T04:10:54;8.50;63.10
36280;DHT22;22317;47.936;12.742;2023-05-20T04:13:20;8.50;63.00
36280;DHT22;22317;47.936;12.742;2023-05-20T04:15:47;8.50;62.90
36280;DHT22;22317;47.936;12.742;2023-05-20T04:18:13;8.50;62.80
36280;DHT22;22317;47.936;12.742;2023-05-20T04:20:40;8.50;62.80
36280;DHT22;22317;47.936;12.742;2023-05-20T04:23:06;8.50;62.80
36280;DHT22;22317;47.936;12.742;2023-05-20T04:25:32;8.50;62.90
36280;DHT22;22317;47.936;12.742;2023-05-20T04:27:59;8.60;62.90
36280;DHT22;22317;47.936;12.742;2023-05-20T04:30:25;8.60;62.80
36280;DHT22;22317;47.936;12.742;2023-05-20T04:32:51;8.60;62.80
36280;DHT22;22317;47.936;12.742;2023-05-20T04:35:18;8.60;62.80
36280;DHT22;22317;47.936;12.742;2023-05-20T04:37:45;8.70;63.00
36280;DHT22;22317;47.936;12.742;2023-05-20T04:40:13;8.70;63.80
36280;DHT22;22317;47.936;12.742;2023-05-20T04:42:39;8.80;63.10
36280;DHT22;22317;47.936;12.742;2023-05-20T04:45:05;8.70;63.00
36280;DHT22;22317;47.936;12.742;2023-05-20T04:47:34;8.80;63.20
36280;DHT22;22317;47.936;12.742;2023-05-20T04:50:07;8.90;63.30
36280;DHT22;22317;47.936;12.742;2023-05-20T04:52:36;8.90;63.40
36280;DHT22;22317;47.936;12.742;2023-05-20T04:55:02;9.00;63.40
36280;DHT22;22317;47.936;12.742;2023-05-20T04:57:28;9.00;63.40
36280;DHT22;22317;47.936;12.742;2023-05-20T04:59:54;9.10;63.80
36280;DHT22;22317;47.936;12.742;2023-05-20T05:02:24;9.20;63.40
36280;DHT22;22317;47.936;12.742;2023-05-20T05:04:50;9.30;63.40
36280;DHT22;22317;47.936;12.742;2023-05-20T05:07:16;9.30;63.40
36280;DHT22;22317;47.936;12.742;2023-05-20T05:09:42;9.40;63.30
36280;DHT22;22317;47.936;12.742;2023-05-20T05:12:07;9.40;63.10
36280;DHT22;22317;47.936;12.742;2023-05-20T05:14:33;9.50;63.20
36280;DHT22;22317;47.936;12.742;2023-05-20T05:16:59;9.50;63.20
36280;DHT22;22317;47.936;12.742;2023-05-20T05:19:25;9.60;63.20
36280;DHT22;22317;47.936;12.742;2023-05-20T05:21:51;9.60;63.20
36280;DHT22;22317;47.936;12.742;2023-05-20T05:24:16;9.70;63.10
36280;DHT22;22317;47.936;12.742;2023-05-20T05:26:42;9.70;63.00
36280;DHT22;22317;47.936;12.742;2023-05-20T05:29:08;9.70;63.00
36280;DHT22;22317;47.936;12.742;2023-05-20T05:31:34;9.80;63.00
36280;DHT22;22317;47.936;12.742;2023-05-20T05:34:00;9.90;63.10
36280;DHT22;22317;47.936;12.742;2023-05-20T05:36:26;10.00;63.20
36280;DHT22;22317;47.936;12.742;2023-05-20T05:38:52;10.10;63.20
36280;DHT22;22317;47.936;12.742;2023-05-20T05:41:18;10.20;63.20
36280;DHT22;22317;47.936;12.742;2023-05-20T05:43:44;10.30;63.10
36280;DHT22;22317;47.936;12.742;2023-05-20T05:46:10;10.40;63.00
36280;DHT22;22317;47.936;12.742;2023-05-20T05:48:36;10.50;62.90
36280;DHT22;22317;47.936;12.742;2023-05-20T05:51:03;10.60;62.80
36280;DHT22;22317;47.936;12.742;2023-05-20T05:53:29;10.70;62.80
36280;DHT22;22317;47.936;12.742;2023-05-20T05:55:55;10.70;62.60
36280;DHT22;22317;47.936;12.742;2023-05-20T05:58:21;10.80;62.50
36280;DHT22;22317;47.936;12.742;2023-05-20T06:00:50;10.90;62.50
36280;DHT22;22317;47.936;12.742;2023-05-20T06:03:16;10.90;62.20
36280;DHT22;22317;47.936;12.742;2023-05-20T06:05:44;10.90;62.10
36280;DHT22;22317;47.936;12.742;2023-05-20T06:08:11;11.00;62.30
36280;DHT22;22317;47.936;12.742;2023-05-20T06:10:37;11.10;62.20
36280;DHT22;22317;47.936;12.742;2023-05-20T06:13:03;11.20;62.20
36280;DHT22;22317;47.936;12.742;2023-05-20T06:15:30;11.30;62.00
36280;DHT22;22317;47.936;12.742;2023-05-20T06:17:55;11.30;61.80
36280;DHT22;22317;47.936;12.742;2023-05-20T06:20:22;11.40;61.70
36280;DHT22;22317;47.936;12.742;2023-05-20T06:22:47;11.40;61.60
36280;DHT22;22317;47.936;12.742;2023-05-20T06:25:13;11.50;61.60
36280;DHT22;22317;47.936;12.742;2023-05-20T06:27:40;11.50;61.50
36280;DHT22;22317;47.936;12.742;2023-05-20T06:30:08;11.60;61.50
36280;DHT22;22317;47.936;12.742;2023-05-20T06:32:34;11.70;61.50
36280;DHT22;22317;47.936;12.742;2023-05-20T06:35:00;11.80;61.40
36280;DHT22;22317;47.936;12.742;2023-05-20T06:37:26;11.90;61.20
36280;DHT22;22317;47.936;12.742;2023-05-20T06:39:52;12.10;61.50
36280;DHT22;22317;47.936;12.742;2023-05-20T06:42:19;12.10;61.10
36280;DHT22;22317;47.936;12.742;2023-05-20T06:45:01;12.30;61.00
36280;DHT22;22317;47.936;12.742;2023-05-20T06:47:36;12.40;60.80
36280;DHT22;22317;47.936;12.742;2023-05-20T06:50:02;12.50;60.30
36280;DHT22;22317;47.936;12.742;2023-05-20T06:52:29;12.50;60.00
36280;DHT22;22317;47.936;12.742;2023-05-20T06:54:56;12.60;59.90
36280;DHT22;22317;47.936;12.742;2023-05-20T06:57:22;12.60;60.50
36280;DHT22;22317;47.936;12.742;2023-05-20T06:59:48;12.60;59.70
36280;DHT22;22317;47.936;12.742;2023-05-20T07:02:15;12.70;59.70
36280;DHT22;22317;47.936;12.742;2023-05-20T07:04:41;12.70;59.50
36280;DHT22;22317;47.936;12.742;2023-05-20T07:07:07;12.80;59.50
36280;DHT22;22317;47.936;12.742;2023-05-20T07:09:33;12.80;59.60
36280;DHT22;22317;47.936;12.742;2023-05-20T07:11:59;13.00;59.70
36280;DHT22;22317;47.936;12.742;2023-05-20T07:14:25;13.10;59.60
36280;DHT22;22317;47.936;12.742;2023-05-20T07:16:51;13.20;59.60
36280;DHT22;22317;47.936;12.742;2023-05-20T07:19:17;13.30;59.50
36280;DHT22;22317;47.936;12.742;2023-05-20T07:21:43;13.40;59.40
36280;DHT22;22317;47.936;12.742;2023-05-20T07:24:15;13.50;59.30
36280;DHT22;22317;47.936;12.742;2023-05-20T07:26:41;13.70;59.10
36280;DHT22;22317;47.936;12.742;2023-05-20T07:29:08;13.80;58.80
36280;DHT22;22317;47.936;12.742;2023-05-20T07:31:35;14.00;58.40
36280;DHT22;22317;47.936;12.742;2023-05-20T07:34:01;14.00;58.20
36280;DHT22;22317;47.936;12.742;2023-05-20T07:36:27;14.20;58.20
36280;DHT22;22317;47.936;12.742;2023-05-20T07:38:56;14.40;58.00
36280;DHT22;22317;47.936;12.742;2023-05-20T07:41:21;14.50;57.60
36280;DHT22;22317;47.936;12.742;2023-05-20T07:43:47;14.70;57.40
36280;DHT22;22317;47.936;12.742;2023-05-20T07:46:13;14.90;56.90
36280;DHT22;22317;47.936;12.742;2023-05-20T07:48:41;15.10;56.50
36280;DHT22;22317;47.936;12.742;2023-05-20T07:51:07;15.30;56.10
36280;DHT22;22317;47.936;12.742;2023-05-20T07:53:33;15.40;55.60
36280;DHT22;22317;47.936;12.742;2023-05-20T07:55:58;15.50;55.30
36280;DHT22;22317;47.936;12.742;2023-05-20T07:58:27;15.60;55.30
36280;DHT22;22317;47.936;12.742;2023-05-20T08:00:53;15.70;55.00
36280;DHT22;22317;47.936;12.742;2023-05-20T08:03:19;15.90;54.70
36280;DHT22;22317;47.936;12.742;2023-05-20T08:06:09;16.00;54.50
36280;DHT22;22317;47.936;12.742;2023-05-20T08:08:35;16.10;54.60
36280;DHT22;22317;47.936;12.742;2023-05-20T08:11:09;16.30;54.50
36280;DHT22;22317;47.936;12.742;2023-05-20T08:13:36;16.40;54.10
36280;DHT22;22317;47.936;12.742;2023-05-20T08:16:02;16.60;53.90
36280;DHT22;22317;47.936;12.742;2023-05-20T08:18:29;16.70;53.70
36280;DHT22;22317;47.936;12.742;2023-05-20T08:20:55;16.90;53.40
36280;DHT22;22317;47.936;12.742;2023-05-20T08:23:20;17.00;53.20
36280;DHT22;22317;47.936;12.742;2023-05-20T08:25:46;17.20;53.00
36280;DHT22;22317;47.936;12.742;2023-05-20T08:28:13;17.40;52.90
36280;DHT22;22317;47.936;12.742;2023-05-20T08:30:39;17.50;52.60
36280;DHT22;22317;47.936;12.742;2023-05-20T08:33:06;17.70;52.30
36280;DHT22;22317;47.936;12.742;2023-05-20T08:35:32;17.80;51.80
36280;DHT22;22317;47.936;12.742;2023-05-20T08:37:58;17.90;51.50
36280;DHT22;22317;47.936;12.742;2023-05-20T08:40:25;18.00;51.10
36280;DHT22;22317;47.936;12.742;2023-05-20T08:42:51;18.00;50.80
36280;DHT22;22317;47.936;12.742;2023-05-20T08:45:19;18.00;50.80
36280;DHT22;22317;47.936;12.742;2023-05-20T08:47:47;18.10;50.70
36280;DHT22;22317;47.936;12.742;2023-05-20T08:50:13;18.20;50.80
36280;DHT22;22317;47.936;12.742;2023-05-20T08:52:44;18.50;51.00
36280;DHT22;22317;47.936;12.742;2023-05-20T08:55:18;18.60;50.70
36280;DHT22;22317;47.936;12.742;2023-05-20T08:57:49;18.80;51.20
36280;DHT22;22317;47.936;12.742;2023-05-20T09:00:16;18.90;50.40
36280;DHT22;22317;47.936;12.742;2023-05-20T09:02:44;19.10;50.40
36280;DHT22;22317;47.936;12.742;2023-05-20T09:05:11;19.20;50.00
36280;DHT22;22317;47.936;12.742;2023-05-20T09:07:37;19.40;49.80
36280;DHT22;22317;47.936;12.742;2023-05-20T09:10:03;19.60;49.70
36280;DHT22;22317;47.936;12.742;2023-05-20T09:12:29;19.80;49.50
36280;DHT22;22317;47.936;12.742;2023-05-20T09:14:55;20.00;49.30
36280;DHT22;22317;47.936;12.742;2023-05-20T09:17:22;20.20;48.90
36280;DHT22;22317;47.936;12.742;2023-05-20T09:19:52;20.30;48.10
36280;DHT22;22317;47.936;12.742;2023-05-20T09:22:25;20.40;47.60
36280;DHT22;22317;47.936;12.742;2023-05-20T09:24:52;20.60;47.70
36280;DHT22;22317;47.936;12.742;2023-05-20T09:27:18;20.80;47.80
36280;DHT22;22317;47.936;12.742;2023-05-20T09:29:47;20.90;47.30
36280;DHT22;22317;47.936;12.742;2023-05-20T09:32:13;21.00;46.60
36280;DHT22;22317;47.936;12.742;2023-05-20T09:34:40;21.00;46.20
36280;DHT22;22317;47.936;12.742;2023-05-20T09:37:10;21.10;46.10
36280;DHT22;22317;47.936;12.742;2023-05-20T09:39:54;21.20;46.10
36280;DHT22;22317;47.936;12.742;2023-05-20T09:42:34;21.40;45.40
36280;DHT22;22317;47.936;12.742;2023-05-20T09:45:03;21.40;45.00
36280;DHT22;22317;47.936;12.742;2023-05-20T09:47:29;21.50;44.90
36280;DHT22;22317;47.936;12.742;2023-05-20T09:49:56;21.60;44.50
36280;DHT22;22317;47.936;12.742;2023-05-20T09:52:23;21.60;44.00
36280;DHT22;22317;47.936;12.742;2023-05-20T09:54:52;21.60;43.80
36280;DHT22;22317;47.936;12.742;2023-05-20T09:57:21;21.60;43.50
36280;DHT22;22317;47.936;12.742;2023-05-20T09:59:47;21.60;43.30
36280;DHT22;22317;47.936;12.742;2023-05-20T10:02:14;21.60;43.10
36280;DHT22;22317;47.936;12.742;2023-05-20T10:04:43;21.60;43.10
36280;DHT22;22317;47.936;12.742;2023-05-20T10:10:16;21.80;42.70
36280;DHT22;22317;47.936;12.742;2023-05-20T10:16:02;22.10;42.60
36280;DHT22;22317;47.936;12.742;2023-05-20T10:21:31;22.30;42.50
36280;DHT22;22317;47.936;12.742;2023-05-20T10:24:08;22.50;42.90
36280;DHT22;22317;47.936;12.742;2023-05-20T10:26:35;22.80;43.20
36280;DHT22;22317;47.936;12.742;2023-05-20T10:29:01;22.90;42.50
36280;DHT22;22317;47.936;12.742;2023-05-20T10:31:26;23.00;42.00
36280;DHT22;22317;47.936;12.742;2023-05-20T10:33:53;23.20;41.90
36280;DHT22;22317;47.936;12.742;2023-05-20T10:36:26;23.20;41.50
36280;DHT22;22317;47.936;12.742;2023-05-20T10:38:57;23.20;40.80
36280;DHT22;22317;47.936;12.742;2023-05-20T10:41:27;23.10;40.90
36280;DHT22;22317;47.936;12.742;2023-05-20T10:44:04;23.00;40.50
36280;DHT22;22317;47.936;12.742;2023-05-20T10:46:31;23.00;39.80
36280;DHT22;22317;47.936;12.742;2023-05-20T10:48:58;22.90;40.10
36280;DHT22;22317;47.936;12.742;2023-05-20T10:51:24;22.80;39.90
36280;DHT22;22317;47.936;12.742;2023-05-20T10:53:54;22.80;39.90
36280;DHT22;22317;47.936;12.742;2023-05-20T10:56:26;22.80;40.00
36280;DHT22;22317;47.936;12.742;2023-05-20T10:58:53;23.00;40.00
36280;DHT22;22317;47.936;12.742;2023-05-20T11:01:24;23.10;40.00
36280;DHT22;22317;47.936;12.742;2023-05-20T11:03:51;23.20;39.80
36280;DHT22;22317;47.936;12.742;2023-05-20T11:06:17;23.40;39.70
36280;DHT22;22317;47.936;12.742;2023-05-20T11:08:44;23.50;39.40
36280;DHT22;22317;47.936;12.742;2023-05-20T11:11:11;23.60;39.10
36280;DHT22;22317;47.936;12.742;2023-05-20T11:13:38;23.60;38.70
36280;DHT22;22317;47.936;12.742;2023-05-20T11:16:04;23.60;38.50
36280;DHT22;22317;47.936;12.742;2023-05-20T11:18:30;23.60;38.40
36280;DHT22;22317;47.936;12.742;2023-05-20T11:21:00;23.70;38.60
36280;DHT22;22317;47.936;12.742;2023-05-20T11:23:27;23.80;38.50
36280;DHT22;22317;47.936;12.742;2023-05-20T11:25:55;23.80;38.20
36280;DHT22;22317;47.936;12.742;2023-05-20T11:28:22;23.80;37.90
36280;DHT22;22317;47.936;12.742;2023-05-20T11:30:51;23.70;37.70
36280;DHT22;22317;47.936;12.742;2023-05-20T11:33:18;23.70;37.80
36280;DHT22;22317;47.936;12.742;2023-05-20T11:35:49;23.70;37.80
36280;DHT22;22317;47.936;12.742;2023-05-20T11:38:15;23.80;37.70
36280;DHT22;22317;47.936;12.742;2023-05-20T11:40:54;23.90;37.70
36280;DHT22;22317;47.936;12.742;2023-05-20T11:43:21;23.90;37.30
36280;DHT22;22317;47.936;12.742;2023-05-20T11:45:53;24.00;37.60
36280;DHT22;22317;47.936;12.742;2023-05-20T11:48:20;24.00;37.10
36280;DHT22;22317;47.936;12.742;2023-05-20T11:50:47;24.00;37.20
36280;DHT22;22317;47.936;12.742;2023-05-20T11:55:56;24.00;36.70
36280;DHT22;22317;47.936;12.742;2023-05-20T11:58:28;23.90;36.60
36280;DHT22;22317;47.936;12.742;2023-05-20T12:00:54;23.90;36.50
36280;DHT22;22317;47.936;12.742;2023-05-20T12:03:20;23.90;36.50
36280;DHT22;22317;47.936;12.742;2023-05-20T12:05:46;23.70;36.20
36280;DHT22;22317;47.936;12.742;2023-05-20T12:08:13;24.00;36.20
36280;DHT22;22317;47.936;12.742;2023-05-20T12:10:39;24.10;35.90
36280;DHT22;22317;47.936;12.742;2023-05-20T12:13:04;24.10;35.50
36280;DHT22;22317;47.936;12.742;2023-05-20T12:15:35;24.20;34.90
36280;DHT22;22317;47.936;12.742;2023-05-20T12:18:01;24.50;34.50
36280;DHT22;22317;47.936;12.742;2023-05-20T12:20:29;24.60;34.20
36280;DHT22;22317;47.936;12.742;2023-05-20T12:22:56;24.80;33.30
36280;DHT22;22317;47.936;12.742;2023-05-20T12:25:22;24.90;32.40
36280;DHT22;22317;47.936;12.742;2023-05-20T12:27:49;25.00;31.70
36280;DHT22;22317;47.936;12.742;2023-05-20T12:30:22;25.10;31.00
36280;DHT22;22317;47.936;12.742;2023-05-20T12:32:49;25.20;30.00
36280;DHT22;22317;47.936;12.742;2023-05-20T12:35:16;25.30;30.10
36280;DHT22;22317;47.936;12.742;2023-05-20T12:37:43;25.50;30.00
36280;DHT22;22317;47.936;12.742;2023-05-20T12:40:10;25.70;29.90
36280;DHT22;22317;47.936;12.742;2023-05-20T12:42:40;26.00;30.00
36280;DHT22;22317;47.936;12.742;2023-05-20T12:45:07;26.10;29.40
36280;DHT22;22317;47.936;12.742;2023-05-20T12:47:34;26.20;29.20
36280;DHT22;22317;47.936;12.742;2023-05-20T12:50:00;26.40;29.30
36280;DHT22;22317;47.936;12.742;2023-05-20T12:52:27;26.60;28.40
36280;DHT22;22317;47.936;12.742;2023-05-20T12:54:53;26.70;28.00
36280;DHT22;22317;47.936;12.742;2023-05-20T12:57:20;26.80;27.80
36280;DHT22;22317;47.936;12.742;2023-05-20T12:59:46;27.00;27.50
36280;DHT22;22317;47.936;12.742;2023-05-20T13:02:11;27.00;27.10
36280;DHT22;22317;47.936;12.742;2023-05-20T13:04:37;27.00;26.90
36280;DHT22;22317;47.936;12.742;2023-05-20T13:07:03;27.10;26.60
36280;DHT22;22317;47.936;12.742;2023-05-20T13:09:29;27.10;26.50
36280;DHT22;22317;47.936;12.742;2023-05-20T13:11:55;27.20;26.50
36280;DHT22;22317;47.936;12.742;2023-05-20T13:14:20;27.20;26.50
36280;DHT22;22317;47.936;12.742;2023-05-20T13:16:48;27.30;26.50
36280;DHT22;22317;47.936;12.742;2023-05-20T13:19:14;27.40;26.30
36280;DHT22;22317;47.936;12.742;2023-05-20T13:21:39;27.40;25.80
36280;DHT22;22317;47.936;12.742;2023-05-20T13:24:05;27.40;25.30
36280;DHT22;22317;47.936;12.742;2023-05-20T13:26:31;27.30;25.20
36280;DHT22;22317;47.936;12.742;2023-05-20T13:28:57;27.20;24.90
36280;DHT22;22317;47.936;12.742;2023-05-20T13:31:23;27.10;24.90
36280;DHT22;22317;47.936;12.742;2023-05-20T13:33:49;27.10;24.90
36280;DHT22;22317;47.936;12.742;2023-05-20T13:36:14;27.10;24.90
36280;DHT22;22317;47.936;12.742;2023-05-20T13:38:40;27.00;24.70
36280;DHT22;22317;47.936;12.742;2023-05-20T13:41:06;27.00;24.60
36280;DHT22;22317;47.936;12.742;2023-05-20T13:43:32;26.90;24.60
36280;DHT22;22317;47.936;12.742;2023-05-20T13:45:58;26.90;24.80
36280;DHT22;22317;47.936;12.742;2023-05-20T13:48:24;26.90;24.90
36280;DHT22;22317;47.936;12.742;2023-05-20T13:50:50;26.80;24.90
36280;DHT22;22317;47.936;12.742;2023-05-20T13:53:15;26.80;24.70
36280;DHT22;22317;47.936;12.742;2023-05-20T13:55:41;26.80;24.80
36280;DHT22;22317;47.936;12.742;2023-05-20T13:58:07;26.90;24.80
36280;DHT22;22317;47.936;12.742;2023-05-20T14:00:37;26.80;24.70
36280;DHT22;22317;47.936;12.742;2023-05-20T14:03:03;26.80;24.70
36280;DHT22;22317;47.936;12.742;2023-05-20T14:05:32;26.80;24.40
36280;DHT22;22317;47.936;12.742;2023-05-20T14:07:58;26.80;24.10
36280;DHT22;22317;47.936;12.742;2023-05-20T14:10:25;26.70;24.30
36280;DHT22;22317;47.936;12.742;2023-05-20T14:12:55;26.70;24.30
36280;DHT22;22317;47.936;12.742;2023-05-20T14:15:21;26.60;24.10
36280;DHT22;22317;47.936;12.742;2023-05-20T14:17:47;26.60;24.30
36280;DHT22;22317;47.936;12.742;2023-05-20T14:20:13;26.50;24.20
36280;DHT22;22317;47.936;12.742;2023-05-20T14:22:39;26.40;24.20
36280;DHT22;22317;47.936;12.742;2023-05-20T14:25:05;26.50;24.30
36280;DHT22;22317;47.936;12.742;2023-05-20T14:27:31;26.50;24.60
36280;DHT22;22317;47.936;12.742;2023-05-20T14:29:57;26.60;24.40
36280;DHT22;22317;47.936;12.742;2023-05-20T14:32:22;26.80;24.30
36280;DHT22;22317;47.936;12.742;2023-05-20T14:34:48;27.00;24.20
36280;DHT22;22317;47.936;12.742;2023-05-20T14:37:14;27.10;24.20
36280;DHT22;22317;47.936;12.742;2023-05-20T14:39:40;27.20;24.00
36280;DHT22;22317;47.936;12.742;2023-05-20T14:42:06;27.20;23.80
36280;DHT22;22317;47.936;12.742;2023-05-20T14:44:32;27.20;23.90
36280;DHT22;22317;47.936;12.742;2023-05-20T14:46:58;27.20;23.90
36280;DHT22;22317;47.936;12.742;2023-05-20T14:49:24;27.20;23.50
36280;DHT22;22317;47.936;12.742;2023-05-20T14:51:50;27.10;23.40
36280;DHT22;22317;47.936;12.742;2023-05-20T14:54:15;26.90;23.30
36280;DHT22;22317;47.936;12.742;2023-05-20T14:56:44;26.80;23.30
36280;DHT22;22317;47.936;12.742;2023-05-20T14:59:10;26.60;23.40
36280;DHT22;22317;47.936;12.742;2023-05-20T15:01:36;26.50;23.40
36280;DHT22;22317;47.936;12.742;2023-05-20T15:04:02;26.40;23.50
36280;DHT22;22317;47.936;12.742;2023-05-20T15:06:28;26.30;23.60
36280;DHT22;22317;47.936;12.742;2023-05-20T15:08:56;26.30;23.80
36280;DHT22;22317;47.936;12.742;2023-05-20T15:11:22;26.20;23.80
36280;DHT22;22317;47.936;12.742;2023-05-20T15:13:47;26.10;23.70
36280;DHT22;22317;47.936;12.742;2023-05-20T15:16:15;26.00;23.60
36280;DHT22;22317;47.936;12.742;2023-05-20T15:18:44;26.00;23.80
36280;DHT22;22317;47.936;12.742;2023-05-20T15:21:10;25.90;24.10
36280;DHT22;22317;47.936;12.742;2023-05-20T15:23:36;25.80;24.10
36280;DHT22;22317;47.936;12.742;2023-05-20T15:26:01;25.80;24.10
36280;DHT22;22317;47.936;12.742;2023-05-20T15:28:27;25.60;24.10
36280;DHT22;22317;47.936;12.742;2023-05-20T15:30:54;25.50;24.60
36280;DHT22;22317;47.936;12.742;2023-05-20T15:33:21;25.40;25.70
36280;DHT22;22317;47.936;12.742;2023-05-20T15:35:46;25.30;26.60